KBQK/BQK METAR and TAF weather

Enter ICAO airport designator
Station Type Date Time Source
KBQK METAR 2021/09/20 06:15 UTC NOAA

KBQK 200615Z AUTO 00000KT 10SM CLR 24/24 A3001 RMK AO2 T02380236


Station Type Date Time Source
KBQK Decoded METAR 2021/09/20 06:15 UTC NOAA

Brunswick / Glynco, GA, United States (KBQK) 31-15N 081-28W
Sep 20, 2021 - 02:15 AM EDT / 2021.09.20 0615 UTC
Wind: Calm:0
Visibility: 10 mile(s):0
Sky conditions: clear
Temperature: 74.8 F (23.8 C)
Dew Point: 74.5 F (23.6 C)
Relative Humidity: 98%
Pressure (altimeter): 30.01 in. Hg (1016 hPa)
ob: KBQK 200615Z AUTO 00000KT 10SM CLR 24/24 A3001 RMK AO2 T02380236
cycle: 6

Station Type Date Time Source
KBQK TAF UTC NOAA

Error!

Example: see airport list